createdAt,value
2018-10-07T00:00:49.372Z,8.37
2018-10-07T00:03:17.512Z,9.13
2018-10-07T00:05:45.693Z,8.43
2018-10-07T00:08:13.847Z,8.97
2018-10-07T00:10:42.013Z,9.10
2018-10-07T00:13:10.185Z,9.70
2018-10-07T00:15:38.349Z,28.93
2018-10-07T00:18:06.532Z,9.27
2018-10-07T00:20:34.673Z,9.40
2018-10-07T00:23:02.824Z,9.20
2018-10-07T00:25:31.019Z,9.40
2018-10-07T00:27:59.175Z,10.63
2018-10-07T00:30:27.307Z,9.50
2018-10-07T00:32:55.455Z,8.80
2018-10-07T00:35:23.664Z,9.60
2018-10-07T00:37:51.882Z,10.03
2018-10-07T00:40:20.029Z,10.70
2018-10-07T00:42:48.173Z,9.57
2018-10-07T00:45:16.344Z,9.60
2018-10-07T00:47:44.485Z,10.60
2018-10-07T00:50:12.618Z,11.00
2018-10-07T00:52:40.761Z,10.37
2018-10-07T00:55:08.905Z,10.10
2018-10-07T00:57:37.345Z,10.50
2018-10-07T01:00:06.646Z,10.53
2018-10-07T01:02:34.799Z,11.97
2018-10-07T01:05:03.102Z,8.80
2018-10-07T01:07:31.266Z,9.17
2018-10-07T01:09:59.415Z,11.57
2018-10-07T01:12:27.570Z,11.40
2018-10-07T01:14:55.720Z,10.80
2018-10-07T01:17:23.868Z,10.67
2018-10-07T01:19:52.021Z,9.73
2018-10-07T01:22:20.240Z,9.40
2018-10-07T01:24:48.385Z,8.90
2018-10-07T01:27:16.524Z,9.77
2018-10-07T01:29:44.653Z,9.97
2018-10-07T01:32:12.809Z,10.00
2018-10-07T01:34:40.927Z,9.80
2018-10-07T01:37:09.120Z,10.70
2018-10-07T01:39:37.252Z,10.67
2018-10-07T01:42:05.413Z,9.80
2018-10-07T01:44:33.557Z,10.07
2018-10-07T01:47:01.710Z,8.47
2018-10-07T01:49:29.925Z,9.70
2018-10-07T01:51:58.053Z,10.00
2018-10-07T01:54:26.199Z,9.10
2018-10-07T01:56:54.326Z,10.37
2018-10-07T01:59:22.499Z,10.10
2018-10-07T02:01:50.636Z,8.20
2018-10-07T02:04:18.785Z,9.30
2018-10-07T02:06:46.912Z,9.37
2018-10-07T02:09:15.049Z,11.57
2018-10-07T02:11:43.185Z,12.80
2018-10-07T02:14:11.325Z,8.67
2018-10-07T02:16:39.464Z,9.70
2018-10-07T02:19:07.613Z,7.73
2018-10-07T02:21:35.738Z,9.90
2018-10-07T02:24:03.877Z,9.30
2018-10-07T02:26:32.048Z,11.13
2018-10-07T02:29:00.197Z,10.70
2018-10-07T02:31:28.336Z,12.20
2018-10-07T02:33:56.487Z,10.97
2018-10-07T02:36:24.637Z,9.80
2018-10-07T02:38:52.801Z,9.63
2018-10-07T02:41:20.932Z,11.70
2018-10-07T02:43:49.084Z,12.53
2018-10-07T02:46:17.221Z,11.70
2018-10-07T02:48:45.373Z,10.17
2018-10-07T02:51:13.528Z,8.70
2018-10-07T02:53:41.680Z,8.20
2018-10-07T02:56:09.852Z,12.43
2018-10-07T02:58:38.010Z,37.10
2018-10-07T03:01:06.165Z,27.20
2018-10-07T03:03:34.333Z,34.10
2018-10-07T03:06:02.489Z,25.50
2018-10-07T03:08:30.655Z,30.30
2018-10-07T03:10:58.801Z,25.20
2018-10-07T03:13:28.784Z,73.13
2018-10-07T03:15:56.949Z,80.57
2018-10-07T03:18:25.101Z,100.67
2018-10-07T03:20:55.296Z,91.07
2018-10-07T03:23:23.465Z,105.30
2018-10-07T03:25:52.009Z,116.67
2018-10-07T03:28:20.161Z,98.37
2018-10-07T03:30:48.342Z,109.87
2018-10-07T03:33:16.562Z,94.93
2018-10-07T03:35:44.724Z,91.93
2018-10-07T03:38:12.885Z,86.90
2018-10-07T03:40:41.028Z,88.40
2018-10-07T03:43:09.161Z,79.40
2018-10-07T03:45:37.305Z,79.77
2018-10-07T03:48:05.453Z,72.97
2018-10-07T03:50:33.616Z,64.63
2018-10-07T03:53:01.775Z,76.60
2018-10-07T03:55:29.951Z,74.53
2018-10-07T03:57:58.101Z,79.10
2018-10-07T04:00:26.311Z,74.17
2018-10-07T04:02:54.462Z,75.00
2018-10-07T04:05:22.653Z,80.27
2018-10-07T04:07:50.809Z,74.03
2018-10-07T04:10:19.061Z,73.60
2018-10-07T04:12:47.307Z,76.87
2018-10-07T04:15:15.481Z,78.13
2018-10-07T04:17:43.697Z,80.33
2018-10-07T04:20:11.884Z,77.27
2018-10-07T04:22:40.068Z,74.50
2018-10-07T04:25:08.234Z,81.27
2018-10-07T04:27:36.387Z,80.73
2018-10-07T04:30:04.620Z,83.13
2018-10-07T04:32:32.782Z,82.03
2018-10-07T04:35:01.004Z,84.97
2018-10-07T04:37:29.165Z,80.00
2018-10-07T04:39:57.470Z,86.23
2018-10-07T04:42:25.568Z,79.73
2018-10-07T04:44:53.733Z,81.53
2018-10-07T04:47:21.889Z,86.60
2018-10-07T04:49:50.093Z,86.70
2018-10-07T04:52:18.270Z,88.50
2018-10-07T04:54:46.428Z,88.83
2018-10-07T04:57:14.613Z,99.30
2018-10-07T04:59:42.810Z,98.33
2018-10-07T05:02:11.031Z,115.20
2018-10-07T05:04:39.269Z,104.70
2018-10-07T05:07:07.441Z,96.83
2018-10-07T05:09:36.305Z,96.93
2018-10-07T05:12:06.451Z,105.77
2018-10-07T05:14:34.594Z,106.83
2018-10-07T05:17:03.183Z,75.00
2018-10-07T05:19:31.324Z,98.73
2018-10-07T05:21:59.481Z,100.47
2018-10-07T05:24:27.633Z,103.57
2018-10-07T05:26:55.789Z,94.37
2018-10-07T05:29:25.589Z,94.77
2018-10-07T05:31:53.801Z,74.80
2018-10-07T05:34:22.005Z,72.50
2018-10-07T05:36:50.196Z,87.50
2018-10-07T05:39:18.376Z,84.67
2018-10-07T05:41:46.557Z,92.60
2018-10-07T05:44:15.773Z,92.43
2018-10-07T05:46:43.916Z,74.47
2018-10-07T05:49:12.064Z,70.40
2018-10-07T05:51:40.232Z,75.40
2018-10-07T05:54:08.411Z,73.73
2018-10-07T05:56:36.578Z,74.83
2018-10-07T05:59:05.574Z,63.60
2018-10-07T06:01:37.492Z,58.60
2018-10-07T06:04:12.875Z,51.27
2018-10-07T06:06:41.066Z,49.53
2018-10-07T06:09:12.934Z,45.53
2018-10-07T06:11:41.093Z,50.50
2018-10-07T06:14:17.177Z,45.60
2018-10-07T06:16:45.353Z,87.33
2018-10-07T06:19:13.528Z,158.27
2018-10-07T06:21:41.853Z,103.07
2018-10-07T06:24:09.945Z,95.40
2018-10-07T06:26:38.134Z,93.53
2018-10-07T06:29:06.464Z,208.63
2018-10-07T06:31:34.628Z,414.50
2018-10-07T06:34:02.856Z,368.20
2018-10-07T06:36:31.053Z,378.93
2018-10-07T06:38:59.221Z,186.60
2018-10-07T06:41:27.387Z,207.53
2018-10-07T06:43:55.642Z,224.83
2018-10-07T06:46:23.793Z,53.67
2018-10-07T06:48:51.941Z,128.23
2018-10-07T06:51:20.109Z,168.33
2018-10-07T06:53:55.954Z,191.97
2018-10-07T06:56:24.185Z,142.07
2018-10-07T06:58:52.344Z,397.53
2018-10-07T07:01:20.609Z,339.63
2018-10-07T07:03:48.765Z,561.03
2018-10-07T07:06:16.959Z,625.23
2018-10-07T07:08:45.189Z,601.07
2018-10-07T07:11:13.365Z,482.50
2018-10-07T07:13:41.518Z,421.87
2018-10-07T07:16:09.701Z,376.73
2018-10-07T07:18:37.989Z,693.83
2018-10-07T07:21:06.152Z,582.10
2018-10-07T07:23:34.372Z,574.50
2018-10-07T07:26:03.462Z,189.30
2018-10-07T07:28:31.636Z,451.47
2018-10-07T07:30:59.821Z,566.17
2018-10-07T07:33:28.022Z,324.53
2018-10-07T07:35:56.204Z,475.37
2018-10-07T07:38:24.436Z,846.93
2018-10-07T07:40:52.624Z,1045.07
2018-10-07T07:43:20.852Z,387.60
2018-10-07T07:45:49.101Z,212.07
2018-10-07T07:48:17.294Z,221.30
2018-10-07T07:50:45.505Z,135.53
2018-10-07T07:53:13.689Z,33.50
2018-10-07T07:55:41.969Z,10.73
2018-10-07T07:58:10.133Z,9.07
2018-10-07T08:00:38.284Z,7.20
2018-10-07T08:03:06.564Z,11.30
2018-10-07T08:05:34.726Z,7.40
2018-10-07T08:08:02.930Z,7.57
2018-10-07T08:10:31.077Z,7.10
2018-10-07T08:12:59.249Z,5.23
2018-10-07T08:15:27.411Z,5.53
2018-10-07T08:17:55.747Z,4.53
2018-10-07T08:20:23.846Z,4.53
2018-10-07T08:22:52.201Z,5.53
2018-10-07T08:25:20.803Z,8.83
2018-10-07T08:27:48.998Z,5.57
2018-10-07T08:30:17.192Z,5.47
2018-10-07T08:32:45.381Z,7.80
2018-10-07T08:35:13.590Z,8.73
2018-10-07T08:37:41.673Z,7.40
2018-10-07T08:40:09.821Z,5.63
2018-10-07T08:42:38.049Z,12.27
2018-10-07T08:45:06.901Z,15.93
2018-10-07T08:47:35.057Z,113.80
2018-10-07T08:50:03.201Z,260.83
2018-10-07T08:52:31.368Z,240.77
2018-10-07T08:54:59.546Z,334.93
2018-10-07T08:57:32.280Z,131.53
2018-10-07T09:00:00.455Z,36.30
2018-10-07T09:02:28.616Z,42.27
2018-10-07T09:04:56.796Z,55.97
2018-10-07T09:07:24.964Z,68.40
2018-10-07T09:09:53.152Z,34.60
2018-10-07T09:12:21.321Z,208.73
2018-10-07T09:14:49.526Z,312.97
2018-10-07T09:17:17.773Z,173.73
2018-10-07T09:19:45.957Z,192.50
2018-10-07T09:22:14.212Z,178.50
2018-10-07T09:24:42.364Z,176.63
2018-10-07T09:27:10.638Z,140.73
2018-10-07T09:29:38.733Z,368.60
2018-10-07T09:32:06.888Z,347.87
2018-10-07T09:34:35.070Z,258.20
2018-10-07T09:37:03.339Z,340.70
2018-10-07T09:39:31.567Z,215.37
2018-10-07T09:41:59.717Z,203.27
2018-10-07T09:44:27.885Z,131.70
2018-10-07T09:46:56.059Z,125.20
2018-10-07T09:49:25.523Z,314.13
2018-10-07T09:51:53.705Z,350.77
2018-10-07T09:54:22.114Z,216.37
2018-10-07T09:56:50.273Z,195.40
2018-10-07T09:59:18.451Z,187.33
2018-10-07T10:01:46.590Z,166.57
2018-10-07T10:04:14.828Z,28.00
2018-10-07T10:06:42.989Z,72.73
2018-10-07T10:09:11.649Z,27.87
2018-10-07T10:11:39.827Z,33.67
2018-10-07T10:14:08.014Z,23.73
2018-10-07T10:16:49.641Z,24.17
2018-10-07T10:19:21.489Z,16.80
2018-10-07T10:21:55.437Z,15.00
2018-10-07T10:24:36.494Z,14.43
2018-10-07T10:27:12.473Z,22.17
2018-10-07T10:29:45.008Z,11.90
2018-10-07T10:32:24.596Z,13.10
2018-10-07T10:35:02.698Z,15.07
2018-10-07T10:37:49.049Z,13.13
2018-10-07T10:40:28.490Z,22.83
2018-10-07T10:43:08.364Z,14.43
2018-10-07T10:46:58.988Z,12.57
2018-10-07T10:51:42.769Z,14.87
2018-10-07T10:54:14.105Z,15.80
2018-10-07T10:57:02.321Z,157.20
2018-10-07T10:59:35.097Z,20.53
2018-10-07T11:04:15.532Z,21.80
2018-10-07T11:06:53.234Z,20.10
2018-10-07T11:11:39.422Z,20.80
2018-10-07T11:14:50.180Z,18.90
2018-10-07T11:19:27.414Z,21.33
2018-10-07T11:22:06.120Z,20.17
2018-10-07T11:26:50.713Z,22.40
2018-10-07T11:29:27.718Z,22.17
2018-10-07T11:32:11.647Z,23.30
2018-10-07T11:34:47.250Z,20.40
2018-10-07T11:38:34.817Z,21.43
2018-10-07T11:41:07.613Z,20.20
2018-10-07T11:43:53.025Z,22.63
2018-10-07T11:47:30.885Z,22.53
2018-10-07T11:50:10.433Z,17.97
2018-10-07T11:52:49.170Z,18.37
2018-10-07T11:55:17.395Z,17.13
2018-10-07T11:57:45.548Z,16.20
2018-10-07T12:00:13.767Z,15.50
2018-10-07T12:02:41.986Z,15.87
2018-10-07T12:05:10.201Z,14.23
2018-10-07T12:07:38.373Z,15.10
2018-10-07T12:10:07.020Z,14.87
2018-10-07T12:12:35.267Z,15.00
2018-10-07T12:15:03.451Z,15.73
2018-10-07T12:17:31.649Z,13.93
2018-10-07T12:19:59.807Z,12.33
2018-10-07T12:22:28.005Z,11.63
2018-10-07T12:24:56.916Z,9.80
2018-10-07T12:27:25.232Z,11.00
2018-10-07T12:29:53.412Z,10.13
2018-10-07T12:32:21.636Z,9.80
2018-10-07T12:34:49.761Z,7.97
2018-10-07T12:37:19.621Z,6.93
2018-10-07T12:39:47.777Z,7.50
2018-10-07T12:42:15.928Z,6.00
2018-10-07T12:44:44.160Z,5.93
2018-10-07T12:47:13.751Z,4.50
2018-10-07T12:49:41.896Z,4.40
2018-10-07T12:52:10.104Z,3.50
2018-10-07T12:54:38.424Z,4.83
2018-10-07T12:57:06.581Z,5.00
2018-10-07T12:59:34.724Z,4.53
2018-10-07T13:02:02.902Z,3.37
2018-10-07T13:04:31.062Z,3.80
2018-10-07T13:06:59.896Z,3.10
2018-10-07T13:09:28.100Z,3.20
2018-10-07T13:11:56.469Z,3.63
2018-10-07T13:14:27.698Z,3.60
2018-10-07T13:16:55.889Z,3.67
2018-10-07T13:19:24.051Z,3.80
2018-10-07T13:21:52.200Z,4.07
2018-10-07T13:24:20.373Z,3.57
2018-10-07T13:26:48.541Z,3.30
2018-10-07T13:29:21.258Z,3.30
2018-10-07T13:31:49.418Z,3.70
2018-10-07T13:34:17.584Z,2.70
2018-10-07T13:36:45.736Z,10.20
2018-10-07T13:39:13.916Z,3.47
2018-10-07T13:41:42.370Z,3.50
2018-10-07T13:44:10.593Z,2.80
2018-10-07T13:46:38.753Z,2.47
2018-10-07T13:49:07.114Z,2.93
2018-10-07T13:51:35.282Z,2.57
2018-10-07T13:54:03.483Z,2.70
2018-10-07T13:56:35.081Z,2.37
2018-10-07T13:59:03.249Z,2.27
2018-10-07T14:01:31.455Z,2.37
2018-10-07T14:03:59.709Z,2.90
2018-10-07T14:06:27.820Z,2.23
2018-10-07T14:08:55.964Z,3.57
2018-10-07T14:11:24.162Z,2.63
2018-10-07T14:13:52.330Z,2.10
2018-10-07T14:16:20.489Z,2.20
2018-10-07T14:18:48.639Z,2.10
2018-10-07T14:21:16.782Z,2.40
2018-10-07T14:23:44.934Z,2.33
2018-10-07T14:26:13.102Z,2.47
2018-10-07T14:28:41.257Z,2.70
2018-10-07T14:31:09.400Z,2.50
2018-10-07T14:33:37.603Z,2.30
2018-10-07T14:36:05.764Z,2.43
2018-10-07T14:38:33.954Z,2.30
2018-10-07T14:41:02.096Z,2.77
2018-10-07T14:43:30.254Z,2.70
2018-10-07T14:45:58.497Z,2.10
2018-10-07T14:48:27.765Z,2.30
2018-10-07T14:50:55.941Z,2.07
2018-10-07T14:53:24.084Z,2.47
2018-10-07T14:55:52.245Z,2.50
2018-10-07T14:58:20.507Z,2.20
2018-10-07T15:00:48.652Z,2.53
2018-10-07T15:03:19.999Z,2.50
2018-10-07T15:05:48.136Z,3.23
2018-10-07T15:08:16.314Z,2.83
2018-10-07T15:10:46.124Z,4.07
2018-10-07T15:13:14.275Z,3.57
2018-10-07T15:15:42.433Z,2.77
2018-10-07T15:18:10.577Z,2.77
2018-10-07T15:20:39.833Z,2.87
2018-10-07T15:23:07.994Z,5.83
2018-10-07T15:25:36.161Z,3.00
2018-10-07T15:28:04.313Z,2.87
2018-10-07T15:30:32.463Z,3.03
2018-10-07T15:33:00.594Z,2.83
2018-10-07T15:35:28.765Z,2.50
2018-10-07T15:37:57.997Z,3.03
2018-10-07T15:40:30.724Z,2.90
2018-10-07T15:42:58.869Z,2.53
2018-10-07T15:45:27.038Z,2.47
2018-10-07T15:47:55.174Z,2.90
2018-10-07T15:50:23.335Z,2.43
2018-10-07T15:52:51.500Z,2.47
2018-10-07T15:55:19.657Z,2.60
2018-10-07T15:57:47.901Z,3.83
2018-10-07T16:00:16.093Z,2.70
2018-10-07T16:02:44.275Z,2.60
2018-10-07T16:05:12.425Z,2.50
2018-10-07T16:07:40.571Z,2.73
2018-10-07T16:10:08.730Z,3.63
2018-10-07T16:12:36.889Z,3.67
2018-10-07T16:15:05.064Z,2.83
2018-10-07T16:17:33.217Z,5.10
2018-10-07T16:20:01.383Z,2.70
2018-10-07T16:22:29.542Z,2.47
2018-10-07T16:24:57.725Z,2.60
2018-10-07T16:27:25.869Z,2.67
2018-10-07T16:29:54.033Z,5.20
2018-10-07T16:32:22.216Z,3.60
2018-10-07T16:34:50.398Z,2.37
2018-10-07T16:37:18.550Z,3.23
2018-10-07T16:39:46.705Z,2.30
2018-10-07T16:42:14.873Z,9.10
2018-10-07T16:44:43.017Z,6.57
2018-10-07T16:47:11.161Z,2.97
2018-10-07T16:49:39.311Z,8.83
2018-10-07T16:52:07.482Z,16.70
2018-10-07T16:54:35.634Z,8.50
2018-10-07T16:57:03.805Z,9.03
2018-10-07T16:59:31.954Z,2.00
2018-10-07T17:02:01.133Z,2.40
2018-10-07T17:04:29.280Z,16.20
2018-10-07T17:06:57.452Z,11.40
2018-10-07T17:09:25.607Z,2.40
2018-10-07T17:11:53.760Z,2.07
2018-10-07T17:14:21.901Z,2.30
2018-10-07T17:16:50.057Z,7.97
2018-10-07T17:19:18.202Z,4.40
2018-10-07T17:21:46.385Z,2.10
2018-10-07T17:24:14.556Z,2.20
2018-10-07T17:26:42.710Z,2.93
2018-10-07T17:29:10.840Z,2.87
2018-10-07T17:31:39.025Z,3.00
2018-10-07T17:34:07.192Z,48.50
2018-10-07T17:36:35.349Z,3.23
2018-10-07T17:39:04.790Z,2.10
2018-10-07T17:41:32.961Z,2.60
2018-10-07T17:44:01.230Z,6.10
2018-10-07T17:46:30.398Z,4.60
2018-10-07T17:48:58.706Z,4.10
2018-10-07T17:51:26.738Z,4.33
2018-10-07T17:53:54.885Z,8.67
2018-10-07T17:56:23.065Z,2.83
2018-10-07T17:58:51.225Z,5.33
2018-10-07T18:01:19.377Z,6.80
2018-10-07T18:03:47.520Z,5.73
2018-10-07T18:06:15.658Z,5.70
2018-10-07T18:08:43.808Z,6.83
2018-10-07T18:11:11.966Z,5.73
2018-10-07T18:13:40.124Z,6.77
2018-10-07T18:16:08.383Z,8.73
2018-10-07T18:18:36.529Z,8.33
2018-10-07T18:21:04.784Z,7.93
2018-10-07T18:23:33.745Z,6.10
2018-10-07T18:26:01.873Z,6.53
2018-10-07T18:28:30.056Z,4.67
2018-10-07T18:30:58.210Z,8.77
2018-10-07T18:33:26.356Z,3.70
2018-10-07T18:35:54.505Z,2.97
2018-10-07T18:38:22.669Z,3.83
2018-10-07T18:40:50.813Z,9.43
2018-10-07T18:43:19.074Z,4.10
2018-10-07T18:45:47.129Z,4.63
2018-10-07T18:48:15.291Z,3.40
2018-10-07T18:50:43.425Z,4.23
2018-10-07T18:53:11.569Z,3.50
2018-10-07T18:55:39.713Z,4.00
2018-10-07T18:58:07.858Z,3.47
2018-10-07T19:00:35.993Z,3.80
2018-10-07T19:03:04.207Z,3.50
2018-10-07T19:05:32.287Z,3.27
2018-10-07T19:08:00.425Z,3.00
2018-10-07T19:10:28.562Z,2.53
2018-10-07T19:12:56.722Z,3.60
2018-10-07T19:15:24.865Z,6.43
2018-10-07T19:17:53.033Z,3.73
2018-10-07T19:20:21.194Z,2.47
2018-10-07T19:22:49.369Z,2.37
2018-10-07T19:25:17.517Z,11.70
2018-10-07T19:27:45.667Z,3.30
2018-10-07T19:30:13.813Z,2.80
2018-10-07T19:32:41.965Z,2.30
2018-10-07T19:35:10.123Z,3.07
2018-10-07T19:37:38.336Z,3.50
2018-10-07T19:40:06.494Z,2.93
2018-10-07T19:42:34.668Z,3.83
2018-10-07T19:45:03.913Z,3.03
2018-10-07T19:47:32.157Z,4.43
2018-10-07T19:50:00.317Z,3.50
2018-10-07T19:52:28.592Z,3.40
2018-10-07T19:54:56.858Z,8.17
2018-10-07T19:57:26.066Z,4.60
2018-10-07T19:59:54.240Z,3.40
2018-10-07T20:02:22.411Z,5.27
2018-10-07T20:04:50.593Z,5.47
2018-10-07T20:07:18.750Z,4.73
2018-10-07T20:09:46.949Z,4.60
2018-10-07T20:12:15.127Z,9.37
2018-10-07T20:14:43.385Z,8.03
2018-10-07T20:17:11.558Z,4.13
2018-10-07T20:19:39.697Z,5.77
2018-10-07T20:22:11.465Z,5.00
2018-10-07T20:24:39.691Z,6.10
2018-10-07T20:27:07.902Z,3.20
2018-10-07T20:29:36.118Z,2.80
2018-10-07T20:32:04.276Z,2.50
2018-10-07T20:34:32.729Z,2.73
2018-10-07T20:37:00.944Z,3.00
2018-10-07T20:39:29.129Z,3.80
2018-10-07T20:41:57.281Z,3.17
2018-10-07T20:44:25.573Z,3.10
2018-10-07T20:46:53.776Z,2.20
2018-10-07T20:49:22.025Z,4.03
2018-10-07T20:51:53.280Z,2.87
2018-10-07T20:54:18.384Z,2.70
2018-10-07T20:56:47.562Z,2.33
2018-10-07T20:59:15.743Z,2.73
2018-10-07T21:01:43.904Z,2.33
2018-10-07T21:04:12.097Z,2.10
2018-10-07T21:06:40.249Z,2.43
2018-10-07T21:09:11.646Z,2.27
2018-10-07T21:11:40.213Z,2.80
2018-10-07T21:14:09.405Z,2.60
2018-10-07T21:16:37.805Z,2.00
2018-10-07T21:19:06.041Z,2.40
2018-10-07T21:21:34.186Z,2.00
2018-10-07T21:24:02.849Z,2.30
2018-10-07T21:26:31.069Z,1.80
2018-10-07T21:28:59.256Z,3.60
2018-10-07T21:31:28.469Z,3.00
2018-10-07T21:33:56.630Z,2.50
2018-10-07T21:36:24.800Z,2.50
2018-10-07T21:38:52.978Z,2.30
2018-10-07T21:41:21.224Z,2.13
2018-10-07T21:43:49.441Z,3.13
2018-10-07T21:46:17.590Z,2.60
2018-10-07T21:48:45.764Z,1.97
2018-10-07T21:51:13.957Z,4.83
2018-10-07T21:53:54.782Z,1.93
2018-10-07T21:56:33.105Z,4.90
2018-10-07T21:59:04.697Z,3.20
2018-10-07T22:01:38.282Z,2.53
2018-10-07T22:04:07.509Z,4.33
2018-10-07T22:06:35.793Z,1.80
2018-10-07T22:09:14.237Z,5.27
2018-10-07T22:11:44.382Z,2.60
2018-10-07T22:14:29.057Z,2.23
2018-10-07T22:16:57.196Z,3.00
2018-10-07T22:19:25.399Z,3.43
2018-10-07T22:21:55.620Z,3.27
2018-10-07T22:24:24.820Z,1.77
2018-10-07T22:27:03.321Z,3.43
2018-10-07T22:29:32.542Z,4.87
2018-10-07T22:32:04.401Z,2.53
2018-10-07T22:34:42.568Z,2.23
2018-10-07T22:37:12.721Z,1.83
2018-10-07T22:40:03.420Z,2.20
2018-10-07T22:42:35.680Z,2.17
2018-10-07T22:45:08.549Z,1.90
2018-10-07T22:47:36.764Z,2.67
2018-10-07T22:50:04.969Z,1.93
2018-10-07T22:52:33.169Z,2.80
2018-10-07T22:55:05.343Z,1.70
2018-10-07T22:57:33.520Z,2.00
2018-10-07T23:00:01.719Z,2.07
2018-10-07T23:02:29.874Z,2.10
2018-10-07T23:04:58.033Z,3.70
2018-10-07T23:07:26.201Z,3.03
2018-10-07T23:09:54.391Z,2.23
2018-10-07T23:12:22.563Z,2.30
2018-10-07T23:14:52.456Z,7.67
2018-10-07T23:17:20.917Z,2.50
2018-10-07T23:19:50.064Z,2.70
2018-10-07T23:22:18.236Z,2.87
2018-10-07T23:24:46.380Z,5.53
2018-10-07T23:27:14.593Z,2.63
2018-10-07T23:29:42.738Z,2.00
2018-10-07T23:32:10.921Z,2.63
2018-10-07T23:34:39.117Z,3.67
2018-10-07T23:37:07.265Z,2.20
2018-10-07T23:39:35.437Z,2.40
2018-10-07T23:42:03.623Z,2.40
2018-10-07T23:44:31.794Z,2.10
2018-10-07T23:46:59.960Z,3.27
2018-10-07T23:49:29.152Z,2.10
2018-10-07T23:51:57.405Z,3.90
2018-10-07T23:54:25.526Z,2.70
2018-10-07T23:56:53.713Z,3.13
2018-10-07T23:59:21.865Z,2.13
